Thursday, September 20, 2018, 12:30 PM EDT
Back to Local

KISP, Islip Long Island Mac Art

Location: Ronkonkoma, NY, United States Lat: 40.8
Local Time: 12:30 PM EDT (16:30 GMT) Lon: -73.1
Time Zone: US/Eastern Elev: 98 ft

Show me the last for .
Show Decoded

2018-09-20 11:56 METAR KISP 201556Z 03007KT 010V070 10SM FEW025 OVC055 21/15 A3024 RMK AO2 SLP240
                 T02110150 =
2018-09-20 10:56 METAR KISP 201456Z 01007KT 10SM FEW025 OVC055 20/14 A3023 RMK AO2 SLP237
                 T02000144 51016 =
2018-09-20 09:56 METAR KISP 201356Z 03010KT 10SM FEW019 OVC050 19/14 A3022 RMK AO2 SLP232
                 T01940144 =
2018-09-20 08:56 METAR KISP 201256Z 02009KT 10SM FEW020 SCT040 BKN055 18/14 A3020 RMK AO2 SLP227
                 T01830144 =
2018-09-20 07:56 METAR KISP 201156Z 01006KT 10SM SCT020 BKN055 17/14 A3018 RMK AO2 SLP220
                 T01720144 10178 20167 53023 =
2018-09-20 06:56 METAR KISP 201056Z 04005KT 10SM FEW020 BKN055 17/14 A3015 RMK AO2 SLP210
                 T01670144 =
2018-09-20 05:56 METAR KISP 200956Z 04005KT 10SM OVC055 17/14 A3013 RMK AO2 SLP203 T01670139 =
2018-09-20 04:56 METAR KISP 200856Z AUTO 07005KT 10SM FEW044 OVC060 17/13 A3012 RMK AO2 SLP197
                 T01720133 53006 =
2018-09-20 03:56 METAR KISP 200756Z AUTO 06006KT 10SM OVC060 17/13 A3010 RMK AO2 SLP194 T01720133
                 =
2018-09-20 03:34 METAR KISP 200734Z AUTO 05006KT 10SM SCT019 OVC060 17/13 A3010 RMK AO2 T01720133
                 =
2018-09-20 03:21 METAR KISP 200721Z AUTO 06007KT 10SM BKN019 BKN037 OVC060 17/13 A3010 RMK AO2
                 T01720133 =
2018-09-20 03:11 METAR KISP 200711Z AUTO 07006KT 10SM SCT021 BKN037 OVC060 17/13 A3010 RMK AO2
                 T01720133 =
2018-09-20 02:56 METAR KISP 200656Z AUTO 07006KT 10SM BKN021 OVC037 17/13 A3010 RMK AO2 SLP193
                 T01720133 =
2018-09-20 02:46 METAR KISP 200646Z AUTO VRB03KT 10SM BKN022 OVC039 17/13 A3010 RMK AO2 T01720133
                 =
2018-09-20 01:56 METAR KISP 200556Z AUTO 07005KT 10SM FEW030 OVC038 18/14 A3010 RMK AO2 SLP191
                 T01780139 10211 20172 51011 =
2018-09-20 00:56 METAR KISP 200456Z AUTO 07011KT 10SM OVC034 18/14 A3009 RMK AO2 SLP188 T01780139
                 402670172 =
2018-09-20 00:05 METAR KISP 200405Z AUTO 08008KT 10SM SCT033 18/14 A3008 RMK AO2 T01780144 =
2018-09-19 23:56 METAR KISP 200356Z 06008KT 10SM BKN021 OVC031 18/14 A3008 RMK AO2 SLP185 LAST
                 T01830144 =
2018-09-19 22:56 METAR KISP 200256Z 07007KT 10SM BKN017 OVC032 19/16 A3006 RMK AO2 SLP180
                 T01940161 51026 =
2018-09-19 21:56 METAR KISP 200156Z 09005KT 10SM SCT012 BKN016 BKN045 19/17 A3004 RMK AO2 SLP172
                 T01940172 =
2018-09-19 20:56 METAR KISP 200056Z 08007KT 10SM BKN017 OVC032 21/17 A3003 RMK AO2 SLP167
                 T02060172 =
2018-09-19 19:56 METAR KISP 192356Z 10007KT 10SM FEW015 BKN022 BKN250 21/19 A2999 RMK AO2 SLP154
                 T02110189 10267 20211 51024 =
2018-09-19 18:56 METAR KISP 192256Z 11008KT 10SM FEW014 BKN020 BKN050 BKN250 21/19 A2997 RMK AO2
                 SLP148 T02110189 =
2018-09-19 18:37 METAR KISP 192237Z 11008KT 10SM SCT014 BKN020 BKN050 BKN250 22/19 A2996 RMK AO2
                 T02170189 =
2018-09-19 17:56 METAR KISP 192156Z 10009KT 10SM FEW027 BKN039 BKN050 BKN250 22/19 A2995 RMK AO2
                 SLP141 T02220194 =
2018-09-19 16:56 METAR KISP 192056Z 07006KT 10SM FEW028 SCT042 SCT120 BKN250 25/18 A2991 RMK AO2
                 SLP129 T02500183 53003 =
2018-09-19 15:56 METAR KISP 191956Z 03008KT 10SM SCT028 BKN045 BKN120 25/18 A2991 RMK AO2 SLP127
                 T02500183 =
2018-09-19 14:56 METAR KISP 191856Z 05009KT 10SM FEW025 SCT039 BKN048 OVC250 26/18 A2990 RMK AO2
                 SLP126 T02560183 =
2018-09-19 13:56 METAR KISP 191756Z 07009KT 10SM FEW023 SCT120 BKN250 26/19 A2991 RMK AO2 SLP126
                 T02610189 10261 20217 58001 =
2018-09-19 12:56 METAR KISP 191656Z 02009KT 10SM FEW025 SCT080 SCT120 BKN250 26/19 A2991 RMK AO2
                 SLP129 T02560189 =

Support USWX by starting your Amazon purchase here.